Airfield :
LOGIN :

Register | Disclaimer

   EN    FR    IT 

 










Legend :    VFR   Marginal VFR   IFR   Intensive IFR   Very Intensive IFR
Visi :
Ceiling :
>= 8 km
>= 3000ft
5 to 8 km
1000 to 3000 ft
1500m to 5 km
500 to 1000 ft
800 to 1500m
200 to 500 ft
< 800m
< 200 ft
Symbols :   Thunderstorms  Fog  Heavy snow  Heavy precipitations  Wind > 20 kt
SIGMETs :     Misc.  Thunderstorms  Icing  Turbulence  Mountain Waves  Volcanic Ashes







- Airport Elevation : 386 ft
- IATA code : QOE


ETNN - Nörvenich Airforce Base

CURRENT METAR :
  • 231720Z 30015G25KT 9999 BKN020 13/08 Q1024 WHT BLU TEMPO WHT

EXPIRED METARs :
  • 231712Z 30016G26KT 9999 BKN022 13/08 Q1024 WHT BLU TEMPO WHT
  • 231620Z 28013KT 9999 BKN025 13/07 Q1023 BLU BLU TEMPO WHT
  • 231520Z 28018KT 9999 BKN025 13/07 Q1023 BLU BLU TEMPO WHT

TAF TAF ETNN
Valid from the 23 at 14:00 until the 23 at 23:00 UTC


231310Z 2314/2323 27015G25KT 9999 NSW BKN025 BKN080
TEMPO 2314/2320 28020G30KT 8000 NSW SCT010 BKN020
BECMG 2320/2322 27015G25KT 8000 NSW FEW012 BKN020
TEMPO 2320/2323 28020G30KT 5000 -DZ FEW005 BKN008 BY ETGL
No reported NOTAMs for that airfield.



MET'MAP, your aeronautical weather chart ! - Copyright ORBIFLY December 2007 - Disclaimer

ORBIFLY MET'MAP TEAM :

Programming & Development : Alexandra Zaïnal
Concept & Development : Baudouin d'Aumeries
Co-Development & Prog : Marc-Olivier Méhu
Technical & hardware support : Manuel Goepfert

Contact : metmap@orbifly.com




SOURCES & CREDITS :

   NOAA